• Join FlightAware (Why Join?)
  • Login
  • US Flag 
07:49PM EDT


 

Airport Tracker/Info


-or-


 

Live Flight TrackerFlight Track Log ✈ N53NW ✈ 04-Jul-2013 ✈ KSSI - KRMG

Flight Track Log - Related Links

Times and Time Zones

All times are in EDT time to prevent confusion due to time zone crossing. See the N53NW flight status page for this flight to view local times or setup timezone preferences in your user account.

Time Position Orientation Groundspeed Altitude Reporting Facility
EDT Latitude Longitude Course Direction KTS MPH feet Rate Location/Type
11:58AM 31.1819 -81.5108 305° West 336 387 2,400  Level Jacksonville Center
11:59AM 31.2244 -81.5856 304° West 260 299 6,900 3,720 Climbing Jacksonville Center
12:00PM 31.2689 -81.6553 307° West 262 302 9,900 2,700 Climbing Jacksonville Center
12:01PM 31.3094 -81.7253 304° West 273 314 12,300 2,880 Climbing Jacksonville Center
12:02PM 31.3664 -81.8075 309° West 289 333 15,700 2,820 Climbing Jacksonville Center
12:03PM 31.4304 -81.8894 305° West  Level FlightAware Approximate
12:03PM 31.4172 -81.8872 307° West 295 339 18,000  Level Jacksonville Center
12:04PM 31.4636 -81.9597 307° West 308 354 20,100 2,040 Climbing Jacksonville Center
12:05PM 31.5206 -82.0494 307° West 326 375 22,100 2,100 Climbing Jacksonville Center
12:06PM 31.5756 -82.1367 307° West 332 382 24,300 2,280 Climbing Jacksonville Center
12:07PM 31.6261 -82.2167 307° West 332 382 26,700 1,800 Climbing Jacksonville Center
12:08PM 31.6850 -82.3017 309° West 327 376 28,000 600 Climbing Jacksonville Center
12:09PM 31.7544 -82.4089 307° West 351 404 28,000  Level Jacksonville Center
12:11PM 31.9206 -82.6711 307° West 412 474 28,000  Level Atlanta Center
12:12PM 31.9842 -82.7706 307° West 417 480 28,000  Level Atlanta Center
12:13PM 32.0522 -82.8772 307° West 417 480 28,000  Level Atlanta Center
12:14PM 32.1200 -82.9892 306° West 417 480 28,000  Level Atlanta Center
12:15PM 32.1897 -83.0964 308° West 417 480 28,000  Level Atlanta Center
12:16PM 32.2572 -83.2061 306° West 417 480 28,000  Level Atlanta Center
12:17PM 32.3267 -83.3136 307° West 417 480 28,000  Level Atlanta Center
12:18PM 32.3942 -83.4264 305° West 417 480 28,000  Level Atlanta Center
12:19PM 32.4636 -83.5367 307° West 418 481 28,000  Level Atlanta Center
12:20PM 32.5286 -83.6422 306° West 413 475 28,000  Level Atlanta Center
12:21PM 32.5917 -83.7456 306° West 402 463 28,000  Level Atlanta Center
12:22PM 32.6544 -83.8514 305° West 402 463 28,000  Level Atlanta Center
12:23PM 32.7192 -83.9572 306° West 402 463 28,000  Level Atlanta Center
12:24PM 32.7839 -84.0611 307° West 402 463 28,000 -480 Level Atlanta Center
12:25PM 32.8508 -84.1675 307° West 408 470 27,100 -1,080 Descending Atlanta Center
12:26PM 32.9172 -84.2814 305° West 414 476 25,900 -1,200 Descending Atlanta Center
12:27PM 32.9839 -84.3931 305° West 414 476 24,700 -1,440 Descending Atlanta Center
12:28PM 33.0503 -84.5022 306° West 414 476 23,100 -1,620 Descending Atlanta Center
12:29PM 33.1144 -84.6067 306° West 402 463 21,500 -1,620 Descending Atlanta Center
12:30PM 33.1747 -84.7089 305° West 389 448 19,900 -1,620 Descending Atlanta Center
12:31PM 33.2408 -84.8186 306° West 377 434 18,300 -960 Descending Atlanta Center
12:32PM 33.3006 -84.9186 306° West 372 428 18,000 -180 Descending Atlanta Center
12:33PM 33.3603 -85.0189 306° West 378 435 18,000 -240 Level Atlanta Center
12:34PM 33.4200 -85.1189 306° West 378 435 17,600 -960 Descending Atlanta Center
12:35PM 33.4797 -85.2194 305° West 378 435 16,100 -1,440 Descending Atlanta Center
12:36PM 33.5392 -85.3147 307° West 367 422 14,800 -1,500 Descending Atlanta Center
12:37PM 33.6331 -85.3311 352° North 335 386 13,200 -1,500 Descending Atlanta Center
12:38PM 33.7147 -85.3125 11° North 330 380 11,900 -1,500 Descending Atlanta Center
12:39PM 33.8067 -85.2939 10° North 330 380 10,200 -1,740 Descending Atlanta Center
12:40PM 33.8944 -85.2750 10° North 325 374 8,500 -1,740 Descending Atlanta Center
12:41PM 33.9781 -85.2586 North 308 354 6,800 -1,800 Descending Atlanta Center
12:42PM 34.0617 -85.2425 North 302 348 5,000 -1,440 Descending Atlanta Center
12:43PM 34.1475 -85.2236 10° North 286 329 4,000 -540 Descending Atlanta Center
12:44PM 34.2228 -85.2094 North 281 323 4,000  Level Atlanta Center
12:45PM 34.3022 -85.1931 10° North 276 318 4,000  Level Atlanta Center
12:46PM 34.3797 -85.1789 North 276 318 4,000  Level Atlanta Center
12:47PM 34.4592 -85.1600 11° North 276 318 4,000  Level Atlanta Center
12:48PM 34.5197 -85.1456 11° North 276 318 4,000  Level Atlanta Center
12:49PM 34.5950 -85.1314 North 269 310 4,000 6,960 Level Atlanta Center
12:50PM 34.6681 -85.1197 North 269 310 18,000 -300 Climbing Atlanta Center
12:51PM 34.6581 -85.0969 118° Southeast 395 455 3,500 -7,260 Descending Atlanta Center
12:52PM 34.6158 -85.1292 212° Southwest 192 221 3,500  Level Atlanta Center
12:53PM 34.5789 -85.0756 130° Southeast 182 209 3,500 7,200 Level Atlanta Center
12:54PM 34.5436 -85.0322 135° Southeast 182 209 18,000 7,200 Climbing Atlanta Center
12:55PM 34.5064 -84.9867 135° Southeast 182 209 18,000  Level Atlanta Center
12:56PM 34.4900 -84.9661 134° Southeast 182 209 18,000  Level Atlanta Center
12:58PM 34.3933 -85.0932 227° Southwest  Level FlightAware Approximate
01:05PM 34.3500 -85.1500 187° South  Level FlightAware Approximate
01:06PM 34.3508 -85.1587 187° South  Level Estimated
01:07PM 34.3500 -85.1500 187° South  Level FlightAware Approximate
01:08PM 34.3508 -85.1587 187° South  Level Estimated
01:09PM 34.3500 -85.1500 187° South  Level FlightAware Approximate